Time;durP1;ratioP1;P1;durP2;ratioP2;P2;SDS_P1;SDS_P2;PMS_P1;PMS_P2;Temp;Humidity;BMP_temperature;BMP_pressure;BME280_temperature;BME280_humidity;BME280_pressure;Samples;Min_cycle;Max_cycle;Signal;HPM_P1;HPM_P2
2023/12/16 00:00:59;;;;;;;61.85;2.50;;;;;;;19.98;59.30;101383.78;7309141;19;130346;-37
2023/12/16 00:03:24;;;;;;;177.18;6.90;;;;;;;19.89;59.75;101381.66;7310468;19;128686;-37
2023/12/16 00:05:50;;;;;;;57.78;2.47;;;;;;;19.85;60.29;101367.94;7312484;19;130947;-37
2023/12/16 00:08:16;;;;;;;68.72;2.83;;;;;;;19.84;60.61;101373.25;7307807;19;131021;-39
2023/12/16 00:10:41;;;;;;;106.38;4.25;;;;;;;19.88;59.76;101369.56;7305938;19;130055;-39
2023/12/16 00:13:06;;;;;;;119.70;4.55;;;;;;;19.85;60.36;101375.78;7311053;19;128845;-39
2023/12/16 00:15:32;;;;;;;66.90;2.90;;;;;;;19.82;60.18;101380.31;7309041;19;130177;-38
2023/12/16 00:17:57;;;;;;;74.10;3.05;;;;;;;19.69;60.38;101368.88;7309662;19;130351;-39
2023/12/16 00:20:23;;;;;;;145.57;5.35;;;;;;;19.73;60.84;101383.44;7307479;19;129313;-38
2023/12/16 00:22:48;;;;;;;85.50;3.58;;;;;;;19.70;61.35;101378.41;7310121;19;129434;-38
2023/12/16 00:25:14;;;;;;;83.22;3.40;;;;;;;19.66;61.54;101384.69;7310335;19;130990;-36
2023/12/16 00:27:39;;;;;;;88.53;3.83;;;;;;;19.65;60.79;101385.63;7310593;19;130318;-37
2023/12/16 00:30:06;;;;;;;100.72;3.92;;;;;;;19.62;61.65;101389.25;7308008;19;129115;-35
2023/12/16 00:32:31;;;;;;;77.85;3.13;;;;;;;19.62;61.19;101393.63;7309790;19;129215;-38
2023/12/16 00:34:56;;;;;;;29.52;1.60;;;;;;;19.61;60.98;101397.16;7311065;19;130709;-39
2023/12/16 00:37:22;;;;;;;60.33;2.50;;;;;;;19.54;61.70;101399.25;7308610;19;129603;-34
2023/12/16 00:39:47;;;;;;;147.30;5.32;;;;;;;19.56;61.39;101404.38;7307484;19;129088;-39
2023/12/16 00:42:12;;;;;;;83.72;3.45;;;;;;;19.58;61.44;101405.16;7308720;19;129189;-38
2023/12/16 00:44:38;;;;;;;62.22;2.67;;;;;;;19.47;61.85;101378.81;7307806;19;130316;-37
2023/12/16 00:47:03;;;;;;;103.22;4.03;;;;;;;19.56;61.88;101394.81;7316482;19;129149;-38
2023/12/16 00:49:29;;;;;;;127.35;4.70;;;;;;;19.56;62.05;101378.31;7315469;19;129004;-37
2023/12/16 00:51:57;;;;;;;54.65;2.38;;;;;;;19.55;61.61;101384.47;7317352;19;129256;-40
2023/12/16 00:54:23;;;;;;;86.38;3.45;;;;;;;19.55;61.72;101402.72;7314148;19;130384;-37
2023/12/16 00:56:49;;;;;;;59.10;2.63;;;;;;;19.57;61.24;101400.88;7316451;19;130178;-37
2023/12/16 00:59:15;;;;;;;143.97;5.40;;;;;;;19.54;61.23;101401.00;7316834;19;129065;-39
2023/12/16 01:01:40;;;;;;;74.32;3.17;;;;;;;19.50;61.43;101392.53;7316214;19;129201;-39
2023/12/16 01:04:06;;;;;;;60.60;2.45;;;;;;;19.56;61.91;101402.63;7315183;19;130141;-36
2023/12/16 01:06:31;;;;;;;197.52;7.38;;;;;;;19.55;61.84;101402.72;7313142;19;131157;-36
2023/12/16 01:08:57;;;;;;;112.15;4.22;;;;;;;19.55;61.38;101397.50;7315595;19;128582;-36
2023/12/16 01:11:22;;;;;;;56.83;2.40;;;;;;;19.56;61.04;101397.41;7317476;19;129493;-39
2023/12/16 01:13:47;;;;;;;24.17;1.52;;;;;;;19.53;61.56;101397.59;7315824;19;130136;-37
2023/12/16 01:16:13;;;;;;;114.22;4.43;;;;;;;19.51;61.53;101385.53;7316338;19;129205;-35
2023/12/16 01:18:38;;;;;;;74.88;3.00;;;;;;;19.38;61.77;101364.50;7315197;19;129509;-35
2023/12/16 01:21:05;;;;;;;43.85;1.98;;;;;;;19.52;61.59;101395.88;7312477;19;129963;-34
2023/12/16 01:23:31;;;;;;;63.22;2.58;;;;;;;19.51;61.23;101395.97;7316081;19;130117;-38
2023/12/16 01:25:56;;;;;;;122.80;4.60;;;;;;;19.48;61.70;101389.97;7315158;19;130354;-38
2023/12/16 01:28:21;;;;;;;92.32;3.55;;;;;;;19.47;61.63;101394.47;7315781;19;129890;-39
2023/12/16 01:30:47;;;;;;;102.22;3.97;;;;;;;19.49;61.62;101401.25;7313041;19;128854;-40
2023/12/16 01:33:13;;;;;;;90.53;3.65;;;;;;;19.50;61.79;101409.94;7314899;19;130081;-37
2023/12/16 01:35:38;;;;;;;131.77;4.85;;;;;;;19.51;61.94;101427.25;7315155;19;130313;-39
2023/12/16 01:38:03;;;;;;;83.25;3.28;;;;;;;19.51;61.66;101429.88;7314273;19;129673;-39
2023/12/16 01:40:29;;;;;;;73.47;2.92;;;;;;;19.51;62.13;101420.28;7312152;19;128865;-38
2023/12/16 01:42:55;;;;;;;78.70;3.22;;;;;;;19.52;62.28;101421.16;7315113;19;129473;-41
2023/12/16 01:45:20;;;;;;;138.60;5.10;;;;;;;19.51;61.72;101416.84;7315065;19;130451;-39
2023/12/16 01:47:46;;;;;;;97.22;4.22;;;;;;;19.53;61.78;101426.28;7316604;19;129253;-36
2023/12/16 01:50:12;;;;;;;47.97;2.33;;;;;;;19.52;62.10;101411.53;7311681;19;131341;-39
2023/12/16 01:52:42;;;;;;;61.88;2.55;;;;;;;19.52;61.73;101421.16;7314650;19;130543;-37
2023/12/16 01:55:09;;;;;;;118.95;4.45;;;;;;;19.52;62.32;101421.16;7316045;19;130767;-37
2023/12/16 01:57:36;;;;;;;66.63;2.70;;;;;;;19.50;62.21;101416.00;7313958;19;129427;-40
2023/12/16 02:00:03;;;;;;;46.28;2.13;;;;;;;19.53;62.08;101415.00;7313000;19;130651;-39
2023/12/16 02:02:28;;;;;;;;;;;;;;;19.51;62.75;101412.47;7312258;19;131076;-38
2023/12/16 02:04:53;;;;;;;118.72;4.45;;;;;;;19.54;61.57;101411.44;7315424;19;130254;-37
2023/12/16 02:07:19;;;;;;;94.25;3.88;;;;;;;19.51;61.53;101406.41;7316459;19;128849;-38
2023/12/16 02:09:44;;;;;;;73.20;3.10;;;;;;;19.54;61.83;101406.22;7313185;19;130394;-37
2023/12/16 02:12:09;;;;;;;65.60;2.75;;;;;;;19.38;62.09;101370.56;7315222;19;130158;-41
2023/12/16 02:14:35;;;;;;;106.05;4.03;;;;;;;19.54;61.96;101406.22;7313893;19;129286;-38
2023/12/16 02:17:00;;;;;;;47.95;2.20;;;;;;;19.53;61.49;101409.78;7314403;19;128964;-38
2023/12/16 02:19:27;;;;;;;56.78;2.53;;;;;;;19.37;61.57;101384.50;7313728;19;128894;-38
2023/12/16 02:21:54;;;;;;;110.47;4.35;;;;;;;19.40;62.12;101400.00;7311702;19;130147;-34
2023/12/16 02:24:19;;;;;;;114.75;4.32;;;;;;;19.53;61.51;101428.03;7314756;19;130561;-37
2023/12/16 02:26:45;;;;;;;48.70;2.13;;;;;;;19.51;61.99;101422.06;7311818;19;129180;-35
2023/12/16 02:29:10;;;;;;;85.45;3.38;;;;;;;19.49;62.41;101424.75;7312939;19;128857;-38
2023/12/16 02:31:35;;;;;;;81.32;3.08;;;;;;;19.50;62.20;101425.59;7313395;19;130084;-37
2023/12/16 02:34:01;;;;;;;93.32;3.70;;;;;;;19.51;61.96;101422.91;7314061;19;131065;-38
2023/12/16 02:36:26;;;;;;;52.17;2.20;;;;;;;19.37;62.03;101400.16;7313771;19;129842;-38
2023/12/16 02:38:51;;;;;;;54.90;2.13;;;;;;;19.51;61.96;101425.50;7311523;19;129712;-37
2023/12/16 02:41:17;;;;;;;146.45;5.55;;;;;;;19.34;61.81;101400.31;7311710;19;130439;-38
2023/12/16 02:43:42;;;;;;;50.20;2.28;;;;;;;19.52;61.48;101418.53;7313640;19;130685;-42
2023/12/16 02:46:09;;;;;;;49.28;2.15;;;;;;;19.43;62.06;101392.03;7311716;19;129225;-39
2023/12/16 02:48:34;;;;;;;65.68;2.88;;;;;;;19.54;61.67;101406.22;7311167;19;129083;-40
2023/12/16 02:50:59;;;;;;;143.30;5.38;;;;;;;19.52;61.81;101419.34;7311154;19;130148;-36
2023/12/16 02:53:25;;;;;;;82.28;3.42;;;;;;;19.53;62.34;101420.22;7313691;19;130404;-36
2023/12/16 02:55:51;;;;;;;51.30;2.33;;;;;;;19.53;61.91;101426.28;7314139;19;129285;-38
2023/12/16 02:58:16;;;;;;;75.45;2.97;;;;;;;19.37;61.92;101405.38;7311497;19;129214;-38
2023/12/16 03:00:41;;;;;;;120.18;4.35;;;;;;;19.51;61.56;101433.34;7307703;19;130796;-37
2023/12/16 03:03:07;;;;;;;86.07;3.30;;;;;;;19.52;61.59;101434.19;7313727;19;129633;-39
2023/12/16 03:05:32;;;;;;;120.95;4.78;;;;;;;19.52;61.82;101444.63;7312183;19;129099;-38
2023/12/16 03:07:58;;;;;;;95.53;3.67;;;;;;;19.47;62.03;101436.19;7311154;19;129509;-38
2023/12/16 03:10:23;;;;;;;130.02;4.97;;;;;;;19.55;61.46;101452.28;7310393;19;130251;-37
2023/12/16 03:12:49;;;;;;;109.93;4.38;;;;;;;19.46;62.10;101435.34;7309843;19;130986;-38
2023/12/16 03:15:14;;;;;;;65.00;2.88;;;;;;;19.51;61.75;101438.56;7312543;19;129309;-35
2023/12/16 03:17:40;;;;;;;133.75;5.18;;;;;;;19.50;62.17;101447.31;7311038;19;129350;-37
2023/12/16 03:20:06;;;;;;;50.65;2.10;;;;;;;19.50;61.41;101446.47;7311485;19;130246;-39
2023/12/16 03:22:31;;;;;;;85.35;3.35;;;;;;;19.43;61.58;101441.59;7309453;19;130807;-39
2023/12/16 03:24:56;;;;;;;62.63;2.65;;;;;;;19.54;61.89;101453.19;7313309;19;129418;-37
2023/12/16 03:27:22;;;;;;;116.93;4.55;;;;;;;19.54;61.83;101458.41;7311152;19;131996;-36
2023/12/16 03:29:47;;;;;;;73.63;2.97;;;;;;;19.52;62.03;101466.31;7306247;19;130305;-39
2023/12/16 03:32:13;;;;;;;58.25;2.53;;;;;;;19.41;61.49;101442.56;7312185;19;130310;-37
2023/12/16 03:34:38;;;;;;;59.97;2.58;;;;;;;19.51;61.54;101459.41;7308277;19;131071;-37
2023/12/16 03:37:03;;;;;;;164.23;6.03;;;;;;;19.52;61.64;101466.31;7311588;19;129269;-38
2023/12/16 03:39:29;;;;;;;87.28;3.45;;;;;;;19.50;61.50;101464.72;7311610;19;130706;-37
2023/12/16 03:41:54;;;;;;;58.40;2.53;;;;;;;19.42;61.53;101444.25;7308847;19;130882;-40
2023/12/16 03:44:20;;;;;;;138.57;5.32;;;;;;;19.55;61.61;101444.47;7311323;19;128889;-40
2023/12/16 03:46:45;;;;;;;75.97;2.83;;;;;;;19.50;61.54;101446.47;7311734;19;128575;-38
2023/12/16 03:49:10;;;;;;;69.05;2.97;;;;;;;19.51;61.78;101448.13;7307662;19;131108;-37
2023/12/16 03:51:36;;;;;;;32.22;1.45;;;;;;;19.50;61.69;101449.94;7309739;19;130411;-39
2023/12/16 03:54:01;;;;;;;135.52;4.93;;;;;;;19.51;62.28;101442.91;7311827;19;129079;-37
2023/12/16 03:56:26;;;;;;;93.78;3.72;;;;;;;19.48;62.05;101437.88;7309614;19;128903;-45
2023/12/16 03:58:52;;;;;;;67.55;2.75;;;;;;;19.51;61.61;101448.13;7310666;19;130109;-38
2023/12/16 04:01:17;;;;;;;83.20;3.33;;;;;;;19.55;61.98;101436.63;7310236;19;129117;-36
2023/12/16 04:03:42;;;;;;;125.07;4.88;;;;;;;19.56;61.52;101440.91;7310983;19;130113;-39
2023/12/16 04:06:14;;;;;;;63.72;2.58;;;;;;;19.54;62.03;101438.38;7311393;19;130177;-40
2023/12/16 04:08:40;;;;;;;21.25;1.17;;;;;;;19.53;61.83;101435.84;7310201;19;129603;-35
2023/12/16 04:11:06;;;;;;;54.03;2.27;;;;;;;19.57;61.56;101437.41;7308568;19;129251;-38
2023/12/16 04:13:34;;;;;;;137.67;5.07;;;;;;;19.56;61.28;101440.91;7311385;19;128838;-38
2023/12/16 04:16:00;;;;;;;55.45;2.45;;;;;;;19.48;62.00;101437.88;7311466;19;128954;-37
2023/12/16 04:18:25;;;;;;;117.73;4.50;;;;;;;19.55;61.73;101458.34;7308894;19;130161;-37
2023/12/16 04:20:51;;;;;;;58.88;2.38;;;;;;;19.55;61.75;101455.75;7304378;19;130578;-38
2023/12/16 04:23:16;;;;;;;110.07;4.25;;;;;;;19.56;61.79;101461.78;7309986;19;129267;-40
2023/12/16 04:25:42;;;;;;;73.05;3.30;;;;;;;19.56;61.69;101462.63;7311570;19;128805;-36
2023/12/16 04:28:07;;;;;;;76.72;3.25;;;;;;;19.56;62.14;101461.78;7308626;19;130034;-38
2023/12/16 04:30:32;;;;;;;124.47;4.70;;;;;;;19.42;61.35;101439.88;7306786;19;129717;-36
2023/12/16 04:32:58;;;;;;;124.03;4.65;;;;;;;19.57;61.73;101466.91;7308658;19;128736;-38
2023/12/16 04:35:23;;;;;;;87.65;3.50;;;;;;;19.58;61.78;101466.00;7311081;19;129537;-37
2023/12/16 04:37:48;;;;;;;111.88;4.50;;;;;;;19.57;61.89;101479.13;7310079;19;130956;-36
2023/12/16 04:40:14;;;;;;;57.28;2.70;;;;;;;19.34;61.38;101457.69;7308814;19;129757;-37
2023/12/16 04:42:42;;;;;;;155.63;5.88;;;;;;;19.36;62.72;101487.16;7305537;19;128741;-36
2023/12/16 04:45:08;;;;;;;128.55;5.15;;;;;;;19.35;62.31;101487.25;7309162;19;129205;-34
2023/12/16 04:47:36;;;;;;;55.10;2.42;;;;;;;19.43;61.86;101485.94;7309174;19;130552;-35
2023/12/16 04:50:03;;;;;;;77.20;2.95;;;;;;;19.60;61.82;101489.41;7308642;19;131574;-38
2023/12/16 04:52:28;;;;;;;121.50;4.65;;;;;;;19.78;60.60;101488.44;7309640;19;129179;-41
2023/12/16 04:54:54;;;;;;;51.92;2.22;;;;;;;19.97;60.07;101489.09;7309518;19;129343;-39
2023/12/16 04:57:19;;;;;;;83.10;3.17;;;;;;;20.17;59.19;101496.72;7309650;19;130102;-40
2023/12/16 04:59:45;;;;;;;100.25;3.78;;;;;;;20.36;58.43;101498.22;7307280;19;131170;-37
2023/12/16 05:02:10;;;;;;;89.20;3.42;;;;;;;20.37;58.34;101493.88;7309403;19;129891;-38
2023/12/16 05:04:36;;;;;;;89.15;3.47;;;;;;;20.64;58.07;101508.81;7309077;19;130531;-37
2023/12/16 05:07:01;;;;;;;51.50;2.15;;;;;;;20.76;57.98;101499.44;7310048;19;129841;-36
2023/12/16 05:09:26;;;;;;;91.97;3.70;;;;;;;20.82;57.47;101486.03;7307544;19;130462;-39
2023/12/16 05:11:52;;;;;;;100.45;4.00;;;;;;;20.88;57.37;101485.66;7310507;19;129277;-38
2023/12/16 05:14:17;;;;;;;55.03;2.38;;;;;;;20.86;57.62;101492.75;7309237;19;129351;-39
2023/12/16 05:16:42;;;;;;;57.58;2.40;;;;;;;20.81;57.03;101489.56;7306946;19;130328;-39
2023/12/16 05:19:07;;;;;;;114.07;4.35;;;;;;;20.77;57.11;101482.00;7307836;19;130287;-38
2023/12/16 05:21:33;;;;;;;74.72;3.25;;;;;;;20.72;57.41;101484.88;7308521;19;130090;-36
2023/12/16 05:23:58;;;;;;;55.40;2.28;;;;;;;20.53;57.91;101476.38;7309473;19;129282;-39
2023/12/16 05:26:23;;;;;;;147.10;5.53;;;;;;;20.55;57.96;101498.91;7307797;19;129039;-39
2023/12/16 05:28:49;;;;;;;105.30;3.92;;;;;;;20.45;58.58;101504.72;7307457;19;129502;-40
2023/12/16 05:31:14;;;;;;;55.25;2.40;;;;;;;20.36;58.07;101497.41;7308141;19;129276;-37
2023/12/16 05:33:39;;;;;;;53.00;2.20;;;;;;;20.31;59.09;101504.66;7316225;19;129094;-36
2023/12/16 05:36:07;;;;;;;51.47;2.40;;;;;;;20.22;59.09;101502.53;7315789;19;130121;-36
2023/12/16 05:38:32;;;;;;;135.35;4.93;;;;;;;20.19;59.35;101495.75;7313732;19;129299;-41
2023/12/16 05:40:57;;;;;;;74.80;3.03;;;;;;;20.09;58.90;101484.06;7311171;19;131155;-38
2023/12/16 05:43:22;;;;;;;148.48;5.75;;;;;;;20.04;59.58;101485.25;7314649;19;128843;-35
2023/12/16 05:45:48;;;;;;;82.78;3.15;;;;;;;19.97;59.32;101489.09;7315925;19;130189;-37
2023/12/16 05:48:14;;;;;;;70.55;2.72;;;;;;;19.92;59.56;101488.50;7314994;19;129635;-38
2023/12/16 05:50:39;;;;;;;52.13;2.13;;;;;;;19.87;59.77;101482.69;7312686;19;129087;-38
2023/12/16 05:53:06;;;;;;;84.00;3.28;;;;;;;19.82;60.21;101484.72;7315015;19;129199;-38
2023/12/16 05:55:33;;;;;;;141.15;5.10;;;;;;;19.63;60.40;101453.56;7314225;19;130443;-37
2023/12/16 05:57:58;;;;;;;109.65;4.35;;;;;;;19.73;60.22;101475.63;7315780;19;130656;-36
2023/12/16 06:00:24;;;;;;;72.72;3.03;;;;;;;19.68;61.05;101485.47;7313310;19;129176;-37
2023/12/16 06:02:49;;;;;;;48.83;2.15;;;;;;;19.70;60.64;101490.59;7312058;19;129228;-36
2023/12/16 06:05:14;;;;;;;206.02;7.82;;;;;;;19.64;60.75;101485.69;7311972;19;130160;-39
2023/12/16 06:07:40;;;;;;;86.55;3.53;;;;;;;19.66;61.04;101479.47;7314555;19;130316;-43
2023/12/16 06:10:05;;;;;;;72.57;3.10;;;;;;;19.60;61.35;101468.53;7312102;19;129663;-38
2023/12/16 06:12:31;;;;;;;171.18;6.53;;;;;;;19.62;61.39;101483.16;7312273;19;130386;-36
2023/12/16 06:14:56;;;;;;;131.57;4.85;;;;;;;19.59;61.03;101477.25;7315439;19;130104;-38
2023/12/16 06:17:21;;;;;;;82.40;3.20;;;;;;;19.60;60.95;101477.22;7315291;19;129619;-38
2023/12/16 06:19:47;;;;;;;32.30;1.63;;;;;;;19.56;61.05;101477.44;7314049;19;130205;-39
2023/12/16 06:22:12;;;;;;;62.88;2.50;;;;;;;19.58;61.79;101493.84;7312368;19;129806;-35
2023/12/16 06:24:37;;;;;;;112.78;4.28;;;;;;;19.58;61.46;101506.91;7313489;19;130613;-39
2023/12/16 06:27:03;;;;;;;83.07;3.30;;;;;;;19.58;61.87;101505.16;7315235;19;130438;-39
2023/12/16 06:29:28;;;;;;;85.80;3.30;;;;;;;19.58;61.21;101512.13;7312476;19;128882;-38
2023/12/16 06:31:54;;;;;;;102.15;4.07;;;;;;;19.55;61.75;101523.56;7313998;19;130516;-39
2023/12/16 06:34:19;;;;;;;129.32;4.68;;;;;;;19.56;61.36;101524.38;7313365;19;131133;-39
2023/12/16 06:36:45;;;;;;;58.50;2.40;;;;;;;19.59;61.89;101527.69;7313377;19;130219;-38
2023/12/16 06:39:10;;;;;;;70.90;2.90;;;;;;;19.62;61.26;101540.56;7313277;19;129276;-37
2023/12/16 06:41:36;;;;;;;146.75;5.32;;;;;;;19.51;61.76;101527.25;7314005;19;129526;-40
2023/12/16 06:44:01;;;;;;;83.18;3.28;;;;;;;19.63;61.38;101546.63;7313639;19;131210;-40
2023/12/16 06:46:26;;;;;;;55.88;2.30;;;;;;;19.63;61.97;101551.84;7313276;19;130288;-40
2023/12/16 06:48:52;;;;;;;133.00;5.18;;;;;;;19.59;61.00;101551.16;7312305;19;129654;-39
2023/12/16 06:51:17;;;;;;;140.63;5.13;;;;;;;19.63;61.36;101563.16;7314199;19;130077;-38
2023/12/16 06:53:43;;;;;;;56.03;2.20;;;;;;;19.63;61.56;101557.06;7314894;19;130068;-36
2023/12/16 06:56:08;;;;;;;65.03;2.65;;;;;;;19.64;60.75;101558.75;7313641;19;129235;-38
2023/12/16 06:58:35;;;;;;;85.00;3.35;;;;;;;19.64;61.31;101558.75;7311405;19;129425;-37
2023/12/16 07:01:03;;;;;;;224.30;8.43;;;;;;;19.68;60.89;101560.28;7309985;19;130627;-36
2023/12/16 07:03:28;;;;;;;60.22;2.45;;;;;;;19.65;61.35;101563.06;7308836;19;130296;-39
2023/12/16 07:05:55;;;;;;;20.85;1.27;;;;;;;19.68;61.23;101560.28;7311921;19;130469;-39
2023/12/16 07:08:20;;;;;;;79.65;3.05;;;;;;;19.67;60.87;101559.44;7311997;19;129258;-39
2023/12/16 07:10:46;;;;;;;157.65;5.80;;;;;;;19.66;61.71;101562.97;7310912;19;129649;-39
2023/12/16 07:13:11;;;;;;;21.60;1.08;;;;;;;19.68;61.35;101565.50;7314336;19;130233;-37
2023/12/16 07:15:38;;;;;;;70.57;2.85;;;;;;;19.70;60.89;101574.09;7312709;19;130203;-39
2023/12/16 07:18:03;;;;;;;70.32;2.88;;;;;;;19.70;60.94;101568.88;7310119;19;129070;-36
2023/12/16 07:20:29;;;;;;;186.57;6.63;;;;;;;19.73;60.75;101584.38;7308049;19;129290;-38
2023/12/16 07:22:55;;;;;;;116.47;4.53;;;;;;;19.67;61.06;101589.94;7310691;19;130491;-38
2023/12/16 07:25:21;;;;;;;59.63;2.40;;;;;;;19.60;61.59;101593.75;7310448;19;130396;-35
2023/12/16 07:27:46;;;;;;;169.57;6.65;;;;;;;19.55;61.57;101600.97;7311483;19;128899;-39
2023/12/16 07:30:12;;;;;;;106.55;3.97;;;;;;;19.53;61.97;101601.06;7311151;19;129633;-39
2023/12/16 07:32:40;;;;;;;71.65;2.72;;;;;;;19.51;61.67;101610.72;7310075;19;130464;-37
2023/12/16 07:35:12;;;;;;;40.63;1.98;;;;;;;19.45;61.88;101598.81;7312062;19;130370;-38
2023/12/16 07:37:38;;;;;;;82.68;3.42;;;;;;;19.48;61.89;101616.09;7312895;19;130139;-36
2023/12/16 07:40:04;;;;;;;144.23;5.50;;;;;;;19.42;62.42;101598.97;7310446;19;129586;-35
2023/12/16 07:42:30;;;;;;;95.43;3.60;;;;;;;19.42;61.86;101595.53;7310907;19;130762;-35
2023/12/16 07:44:55;;;;;;;73.28;2.95;;;;;;;19.41;61.73;101597.31;7310640;19;131039;-38
2023/12/16 07:47:20;;;;;;;63.58;2.72;;;;;;;19.38;62.43;101589.66;7311745;19;129596;-37
2023/12/16 07:49:46;;;;;;;88.93;3.38;;;;;;;19.36;62.47;101575.84;7310102;19;128920;-37
2023/12/16 07:52:12;;;;;;;68.47;2.75;;;;;;;19.32;62.66;101570.84;7311266;19;130333;-40
2023/12/16 07:54:37;;;;;;;92.28;3.70;;;;;;;19.35;62.18;101574.13;7307383;19;130316;-39
2023/12/16 07:57:02;;;;;;;118.72;4.38;;;;;;;19.34;62.03;101571.59;7311335;19;129702;-39
2023/12/16 07:59:30;;;;;;;97.13;3.60;;;;;;;19.33;62.03;101578.59;7311002;19;129192;-38
2023/12/16 08:01:56;;;;;;;54.70;2.15;;;;;;;19.32;62.69;101589.94;7309486;19;130223;-39
2023/12/16 08:04:21;;;;;;;68.73;2.80;;;;;;;19.34;62.04;101593.31;7310555;19;130970;-39
2023/12/16 08:06:47;;;;;;;103.65;3.80;;;;;;;19.35;61.70;101597.59;7309860;19;130167;-37
2023/12/16 08:09:13;;;;;;;110.22;4.18;;;;;;;19.36;61.94;101603.66;7309557;19;129144;-40
2023/12/16 08:11:38;;;;;;;70.30;2.78;;;;;;;19.38;62.06;101610.50;7310731;19;130694;-37
2023/12/16 08:14:06;;;;;;;48.92;2.08;;;;;;;19.39;61.82;101614.78;7310813;19;130271;-39
2023/12/16 08:16:31;;;;;;;118.15;4.25;;;;;;;19.39;62.06;101616.53;7310136;19;129114;-39
2023/12/16 08:18:57;;;;;;;74.63;2.88;;;;;;;19.39;62.10;101612.19;7310121;19;129065;-36
2023/12/16 08:21:22;;;;;;;85.63;3.50;;;;;;;19.40;61.78;101626.91;7311491;19;130219;-36
2023/12/16 08:23:47;;;;;;;47.40;2.03;;;;;;;19.23;62.16;101598.19;7308424;19;130462;-39
2023/12/16 08:26:13;;;;;;;127.32;4.63;;;;;;;19.41;61.90;101623.38;7310165;19;130455;-37
2023/12/16 08:28:40;;;;;;;180.10;6.85;;;;;;;19.38;61.52;101631.38;7308677;19;129267;-39
2023/12/16 08:31:06;;;;;;;52.78;2.33;;;;;;;19.40;61.97;101629.50;7306808;19;129597;-38
2023/12/16 08:33:31;;;;;;;41.67;1.73;;;;;;;19.37;61.55;101634.88;7310668;19;130585;-35
2023/12/16 08:35:57;;;;;;;112.43;4.15;;;;;;;19.20;62.08;101606.19;7310373;19;128945;-38
2023/12/16 08:38:22;;;;;;;72.35;2.95;;;;;;;19.35;62.15;101634.09;7310876;19;129022;-38
2023/12/16 08:40:47;;;;;;;53.17;2.33;;;;;;;19.37;62.33;101634.03;7305983;19;130094;-35
2023/12/16 08:43:13;;;;;;;45.70;1.90;;;;;;;19.34;62.43;101637.66;7307771;19;130275;-38
2023/12/16 08:45:39;;;;;;;178.73;6.75;;;;;;;19.37;61.82;101640.09;7308858;19;129572;-37
2023/12/16 08:48:04;;;;;;;59.65;2.42;;;;;;;19.34;62.22;101653.28;7310970;19;129121;-40
2023/12/16 08:50:30;;;;;;;100.43;3.75;;;;;;;19.32;62.42;101631.66;7307231;19;129653;-37
2023/12/16 08:52:55;;;;;;;59.42;2.42;;;;;;;19.34;62.18;101644.63;7309886;19;130449;-37
2023/12/16 08:55:24;;;;;;;97.78;3.60;;;;;;;19.34;61.87;101635.03;7310595;19;128876;-38
2023/12/16 08:57:49;;;;;;;119.32;4.93;;;;;;;19.36;62.09;101633.22;7309753;19;128648;-38
2023/12/16 09:00:15;;;;;;;117.30;4.53;;;;;;;19.33;61.97;101628.16;7303884;19;130355;-35
2023/12/16 09:02:40;;;;;;;97.47;3.67;;;;;;;19.34;62.58;101622.00;7304769;19;130450;-38
2023/12/16 09:05:07;;;;;;;125.38;4.50;;;;;;;19.31;62.90;101618.69;7309730;19;129232;-40
2023/12/16 09:07:33;;;;;;;105.53;4.25;;;;;;;19.35;62.27;101630.69;7312900;19;128958;-40
2023/12/16 09:09:58;;;;;;;62.03;2.37;;;;;;;19.34;62.47;101640.25;7314609;19;131653;-37
2023/12/16 09:12:24;;;;;;;197.30;7.18;;;;;;;19.33;62.79;101649.00;7314846;19;131319;-38
2023/12/16 09:14:49;;;;;;;109.97;4.03;;;;;;;19.34;62.16;101642.00;7314864;19;129860;-41
2023/12/16 09:17:15;;;;;;;132.45;5.60;;;;;;;19.34;62.01;101655.91;7316851;19;129681;-41
2023/12/16 09:19:40;;;;;;;85.00;3.28;;;;;;;19.35;61.91;101662.78;7314740;19;131001;-38
2023/12/16 09:22:06;;;;;;;93.47;3.50;;;;;;;19.33;62.62;101662.06;7315368;19;129206;-39
2023/12/16 09:24:33;;;;;;;85.10;3.28;;;;;;;19.17;62.31;101637.59;7315973;19;128895;-39
2023/12/16 09:26:58;;;;;;;55.53;2.33;;;;;;;19.32;62.49;101662.94;7316914;19;128918;-39
2023/12/16 09:29:23;;;;;;;56.05;2.38;;;;;;;19.34;62.58;101650.69;7313758;19;129305;-35
2023/12/16 09:31:49;;;;;;;137.68;5.00;;;;;;;19.32;62.15;101657.72;7315143;19;130337;-38
2023/12/16 09:34:14;;;;;;;66.03;2.63;;;;;;;19.31;62.72;101656.06;7317344;19;129385;-40
2023/12/16 09:36:40;;;;;;;78.35;3.00;;;;;;;19.32;62.66;101665.56;7315268;19;129539;-35
2023/12/16 09:39:05;;;;;;;37.60;1.67;;;;;;;19.30;61.98;101653.53;7315157;19;130097;-40
2023/12/16 09:41:31;;;;;;;132.27;4.75;;;;;;;19.32;62.78;101660.34;7316298;19;129819;-36
2023/12/16 09:44:03;;;;;;;65.88;2.78;;;;;;;19.14;61.92;101635.13;7312588;19;129158;-38
2023/12/16 09:46:33;;;;;;;51.33;2.25;;;;;;;19.33;62.22;101654.22;7316824;19;130899;-35
2023/12/16 09:49:02;;;;;;;100.68;4.10;;;;;;;19.31;62.56;101647.38;7312464;19;130547;-38
2023/12/16 09:51:28;;;;;;;131.38;4.90;;;;;;;19.33;62.56;101638.59;7313577;19;130081;-40
2023/12/16 09:53:54;;;;;;;97.32;3.63;;;;;;;19.32;62.39;101634.25;7313655;19;129827;-40
2023/12/16 09:56:21;;;;;;;58.85;2.45;;;;;;;19.33;62.21;101622.06;7315570;19;128902;-39
2023/12/16 09:58:47;;;;;;;84.90;3.42;;;;;;;19.33;62.29;101633.38;7312352;19;130491;-36
2023/12/16 10:01:13;;;;;;;126.43;4.80;;;;;;;19.36;62.17;101630.59;7311791;19;130505;-39
2023/12/16 10:03:40;;;;;;;100.63;3.80;;;;;;;19.29;62.52;101620.53;7310625;19;129045;-39
2023/12/16 10:06:10;;;;;;;98.40;3.83;;;;;;;19.29;61.59;101610.94;7314351;19;129001;-40
2023/12/16 10:08:40;;;;;;;51.28;2.17;;;;;;;19.31;62.41;101614.34;7315180;19;130146;-39
2023/12/16 10:11:06;;;;;;;100.47;3.83;;;;;;;19.31;62.34;101597.84;7311576;19;130652;-38
2023/12/16 10:13:32;;;;;;;45.05;1.92;;;;;;;19.30;62.70;101596.97;7315267;19;129188;-37
2023/12/16 10:15:58;;;;;;;70.35;2.72;;;;;;;19.29;62.24;101590.09;7314536;19;129108;-40
2023/12/16 10:18:26;;;;;;;58.40;2.33;;;;;;;19.31;62.72;101588.25;7309963;19;130134;-40
2023/12/16 10:20:51;;;;;;;85.47;3.33;;;;;;;19.30;62.27;101591.75;7310238;19;130546;-38
2023/12/16 10:23:17;;;;;;;127.60;4.57;;;;;;;19.26;62.69;101590.22;7312534;19;129114;-38
2023/12/16 10:25:42;;;;;;;111.22;4.53;;;;;;;19.14;62.36;101575.16;7312382;19;130765;-40
2023/12/16 10:28:09;;;;;;;53.65;2.03;;;;;;;19.31;61.82;101603.91;7310902;19;130288;-37
2023/12/16 10:30:34;;;;;;;;;;;;;;;19.31;62.15;101592.63;7311613;19;130464;-38
2023/12/16 10:33:03;;;;;;;119.47;4.23;;;;;;;19.29;61.90;101587.47;7313875;19;128936;-37
2023/12/16 10:35:33;;;;;;;32.08;1.48;;;;;;;19.29;62.63;101595.31;7314671;19;130592;-39
2023/12/16 10:37:58;;;;;;;92.32;3.75;;;;;;;19.30;62.05;101602.19;7313828;19;130112;-38
2023/12/16 10:40:24;;;;;;;71.05;2.92;;;;;;;19.27;62.22;101591.88;7312938;19;130030;-38
2023/12/16 10:42:49;;;;;;;131.68;4.88;;;;;;;19.28;62.48;101593.59;7313661;19;129369;-38
2023/12/16 10:45:14;;;;;;;57.03;2.33;;;;;;;19.28;62.42;101596.19;7312833;19;129221;-39
2023/12/16 10:47:41;;;;;;;78.93;3.30;;;;;;;19.25;62.63;101588.50;7313184;19;129054;-35
2023/12/16 10:50:07;;;;;;;91.60;3.40;;;;;;;19.26;63.24;101590.22;7312044;19;130935;-36
2023/12/16 10:52:40;;;;;;;178.53;6.70;;;;;;;19.25;62.17;101583.28;7312584;19;130323;-40
2023/12/16 10:55:10;;;;;;;70.10;2.72;;;;;;;19.26;62.23;101590.22;7314167;19;129199;-39
2023/12/16 10:57:52;;;;;;;64.07;2.65;;;;;;;19.24;62.98;101581.63;7311881;19;130773;-37
2023/12/16 11:00:23;;;;;;;58.05;2.35;;;;;;;19.25;62.61;101569.44;7310373;19;130523;-38